createdAt,value
2022-11-05T00:00:10.159Z,9.15
2022-11-05T00:02:31.191Z,9.17
2022-11-05T00:04:53.847Z,9.20
2022-11-05T00:07:19.251Z,9.22
2022-11-05T00:09:32.681Z,9.22
2022-11-05T00:11:54.299Z,9.21
2022-11-05T00:14:15.339Z,9.23
2022-11-05T00:16:36.496Z,9.22
2022-11-05T00:18:40.136Z,9.24
2022-11-05T00:20:45.757Z,9.26
2022-11-05T00:23:06.415Z,9.29
2022-11-05T00:25:15.169Z,9.33
2022-11-05T00:27:18.770Z,9.36
2022-11-05T00:29:22.325Z,9.38
2022-11-05T00:31:25.940Z,9.44
2022-11-05T00:33:29.892Z,9.47
2022-11-05T00:35:33.395Z,9.50
2022-11-05T00:37:38.553Z,9.51
2022-11-05T00:39:42.259Z,9.52
2022-11-05T00:42:05.981Z,9.51
2022-11-05T00:44:41.657Z,9.51
2022-11-05T00:46:45.374Z,9.48
2022-11-05T00:49:06.152Z,9.45
2022-11-05T00:51:10.530Z,9.43
2022-11-05T00:53:15.488Z,9.39
2022-11-05T00:55:19.447Z,9.37
2022-11-05T00:57:23.047Z,9.35
2022-11-05T00:59:26.492Z,9.34
2022-11-05T01:01:31.473Z,9.33
2022-11-05T01:03:37.276Z,9.33
2022-11-05T01:05:42.335Z,9.32
2022-11-05T01:07:45.873Z,9.32
2022-11-05T01:09:51.185Z,9.32
2022-11-05T01:11:55.905Z,9.32
2022-11-05T01:13:59.590Z,9.31
2022-11-05T01:16:07.678Z,9.31
2022-11-05T01:18:11.669Z,9.33
2022-11-05T01:20:16.697Z,9.33
2022-11-05T01:22:21.057Z,9.33
2022-11-05T01:24:25.133Z,9.33
2022-11-05T01:26:30.378Z,9.34
2022-11-05T01:28:33.990Z,9.34
2022-11-05T01:30:37.959Z,9.35
2022-11-05T01:32:41.734Z,9.35
2022-11-05T01:34:45.284Z,9.35
2022-11-05T01:36:50.748Z,9.37
2022-11-05T01:38:54.262Z,9.37
2022-11-05T01:40:57.859Z,9.37
2022-11-05T01:43:02.987Z,9.37
2022-11-05T01:45:14.414Z,9.37
2022-11-05T01:47:27.300Z,9.37
2022-11-05T01:49:34.966Z,9.37
2022-11-05T01:51:38.808Z,9.37
2022-11-05T01:53:47.848Z,9.37
2022-11-05T01:55:56.881Z,9.38
2022-11-05T01:58:02.261Z,9.39
2022-11-05T02:00:08.430Z,9.39
2022-11-05T02:02:17.160Z,9.40
2022-11-05T02:04:29.414Z,9.41
2022-11-05T02:06:36.176Z,9.42
2022-11-05T02:08:54.170Z,9.43
2022-11-05T02:10:58.461Z,9.43
2022-11-05T02:13:03.806Z,9.44
2022-11-05T02:15:12.732Z,9.45
2022-11-05T02:17:25.430Z,9.46
2022-11-05T02:20:04.403Z,9.48
2022-11-05T02:22:38.445Z,9.48
2022-11-05T02:25:03.560Z,9.48
2022-11-05T02:27:18.989Z,9.47
2022-11-05T02:29:48.685Z,9.46
2022-11-05T02:32:05.479Z,9.45
2022-11-05T02:34:19.324Z,9.44
2022-11-05T02:36:33.506Z,9.44
2022-11-05T02:38:44.495Z,9.42
2022-11-05T02:40:56.534Z,9.43
2022-11-05T02:43:06.641Z,9.42
2022-11-05T02:45:18.358Z,9.41
2022-11-05T02:47:39.683Z,9.41
2022-11-05T02:49:52.696Z,9.40
2022-11-05T02:52:00.287Z,9.40
2022-11-05T02:54:11.312Z,9.40
2022-11-05T02:56:22.457Z,9.39
2022-11-05T02:58:26.005Z,9.36
2022-11-05T03:00:42.627Z,9.36
2022-11-05T03:02:47.873Z,9.35
2022-11-05T03:04:51.528Z,9.37
2022-11-05T03:07:17.203Z,9.36
2022-11-05T03:09:40.221Z,9.36
2022-11-05T03:11:56.396Z,9.37
2022-11-05T03:14:04.317Z,9.37
2022-11-05T03:16:18.187Z,9.39
2022-11-05T03:18:31.668Z,9.38
2022-11-05T03:20:41.311Z,9.39
2022-11-05T03:22:50.838Z,9.40
2022-11-05T03:24:59.548Z,9.42
2022-11-05T03:27:07.650Z,9.43
2022-11-05T03:29:15.463Z,9.46
2022-11-05T03:31:20.529Z,9.49
2022-11-05T03:33:29.325Z,9.52
2022-11-05T03:35:38.071Z,9.54
2022-11-05T03:37:44.484Z,9.52
2022-11-05T03:39:55.639Z,9.53
2022-11-05T03:42:00.347Z,9.54
2022-11-05T03:44:07.187Z,9.52
2022-11-05T03:46:13.880Z,9.45
2022-11-05T03:48:20.826Z,9.35
2022-11-05T03:50:34.773Z,9.26
2022-11-05T03:52:47.535Z,9.17
2022-11-05T03:54:51.112Z,9.11
2022-11-05T03:57:03.899Z,9.09
2022-11-05T03:59:10.859Z,9.07
2022-11-05T04:01:15.400Z,9.06
2022-11-05T04:03:19.908Z,9.08
2022-11-05T04:05:23.721Z,9.08
2022-11-05T04:07:45.814Z,9.12
2022-11-05T04:10:06.873Z,9.14
2022-11-05T04:12:26.071Z,9.19
2022-11-05T04:14:30.301Z,9.30
2022-11-05T04:16:50.970Z,9.37
2022-11-05T04:18:54.792Z,9.43
2022-11-05T04:21:15.932Z,9.48
2022-11-05T04:23:43.531Z,9.53
2022-11-05T04:25:47.005Z,9.58
2022-11-05T04:27:50.879Z,9.60
2022-11-05T04:30:11.689Z,9.62
2022-11-05T04:32:15.583Z,9.61
2022-11-05T04:34:22.119Z,9.62
2022-11-05T04:36:26.331Z,9.63
2022-11-05T04:38:31.317Z,9.68
2022-11-05T04:40:35.058Z,9.74
2022-11-05T04:42:38.270Z,9.79
2022-11-05T04:44:41.571Z,9.84
2022-11-05T04:46:45.053Z,9.93
2022-11-05T04:48:48.379Z,9.93
2022-11-05T04:50:51.647Z,9.93
2022-11-05T04:52:54.877Z,9.91
2022-11-05T04:54:59.539Z,9.91
2022-11-05T04:57:02.773Z,9.90
2022-11-05T04:59:06.051Z,9.89
2022-11-05T05:01:14.307Z,9.88
2022-11-05T05:03:17.754Z,9.85
2022-11-05T05:05:22.113Z,9.82
2022-11-05T05:07:25.934Z,9.82
2022-11-05T05:09:29.296Z,9.80
2022-11-05T05:11:33.941Z,9.78
2022-11-05T05:13:37.128Z,9.81
2022-11-05T05:15:40.463Z,9.83
2022-11-05T05:17:43.624Z,9.87
2022-11-05T05:20:04.673Z,9.86
2022-11-05T05:22:07.844Z,9.88
2022-11-05T05:24:13.224Z,9.91
2022-11-05T05:26:16.660Z,9.91
2022-11-05T05:28:21.319Z,9.90
2022-11-05T05:30:25.952Z,9.88
2022-11-05T05:32:29.195Z,9.88
2022-11-05T05:34:32.473Z,9.88
2022-11-05T05:36:35.667Z,9.88
2022-11-05T05:38:39.059Z,9.89
2022-11-05T05:40:42.325Z,9.89
2022-11-05T05:42:45.563Z,9.99
2022-11-05T05:44:50.201Z,10.07
2022-11-05T05:46:55.143Z,10.16
2022-11-05T05:48:58.377Z,10.24
2022-11-05T05:51:02.946Z,10.29
2022-11-05T05:53:06.199Z,10.35
2022-11-05T05:55:12.657Z,10.45
2022-11-05T05:57:15.907Z,10.53
2022-11-05T05:59:19.131Z,10.60
2022-11-05T06:01:24.082Z,10.66
2022-11-05T06:03:27.385Z,10.70
2022-11-05T06:05:30.668Z,10.72
2022-11-05T06:07:37.277Z,10.74
2022-11-05T06:09:40.805Z,10.75
2022-11-05T06:11:44.007Z,10.79
2022-11-05T06:13:47.497Z,10.86
2022-11-05T06:15:50.767Z,10.89
2022-11-05T06:17:55.398Z,10.91
2022-11-05T06:19:58.617Z,10.95
2022-11-05T06:22:01.948Z,10.97
2022-11-05T06:24:05.414Z,10.97
2022-11-05T06:26:10.343Z,11.03
2022-11-05T06:28:13.645Z,11.06
2022-11-05T06:30:17.756Z,11.09
2022-11-05T06:32:21.080Z,11.10
2022-11-05T06:34:25.746Z,11.09
2022-11-05T06:36:28.916Z,11.09
2022-11-05T06:38:34.346Z,11.11
2022-11-05T06:40:37.560Z,11.10
2022-11-05T06:42:40.793Z,11.09
2022-11-05T06:44:43.959Z,11.10
2022-11-05T06:46:48.882Z,11.10
2022-11-05T06:48:52.189Z,11.11
2022-11-05T06:50:58.425Z,11.10
2022-11-05T06:53:05.216Z,11.10
2022-11-05T06:55:09.209Z,11.12
2022-11-05T06:57:13.476Z,11.13
2022-11-05T06:59:16.843Z,11.16
2022-11-05T07:01:20.379Z,11.16
2022-11-05T07:03:23.693Z,11.17
2022-11-05T07:05:27.382Z,11.17
2022-11-05T07:07:31.962Z,11.20
2022-11-05T07:09:38.568Z,11.22
2022-11-05T07:11:41.804Z,11.24
2022-11-05T07:13:46.391Z,11.24
2022-11-05T07:15:49.663Z,11.24
2022-11-05T07:17:58.693Z,11.25
2022-11-05T07:20:02.044Z,11.26
2022-11-05T07:22:05.527Z,11.26
2022-11-05T07:24:10.514Z,11.28
2022-11-05T07:26:13.801Z,11.29
2022-11-05T07:28:17.105Z,11.30
2022-11-05T07:30:20.637Z,11.33
2022-11-05T07:32:24.387Z,11.35
2022-11-05T07:34:27.532Z,11.36
2022-11-05T07:36:30.923Z,11.37
2022-11-05T07:38:34.383Z,11.40
2022-11-05T07:40:39.463Z,11.40
2022-11-05T07:42:44.648Z,11.42
2022-11-05T07:44:48.074Z,11.43
2022-11-05T07:46:52.049Z,11.45
2022-11-05T07:48:55.435Z,11.48
2022-11-05T07:50:59.005Z,11.48
2022-11-05T07:53:02.786Z,11.49
2022-11-05T07:55:07.182Z,11.51
2022-11-05T07:57:11.936Z,11.55
2022-11-05T07:59:15.287Z,11.56
2022-11-05T08:01:18.701Z,11.56
2022-11-05T08:03:22.291Z,11.56
2022-11-05T08:05:25.983Z,11.56
2022-11-05T08:07:29.769Z,11.58
2022-11-05T08:09:33.055Z,11.59
2022-11-05T08:11:36.377Z,11.59
2022-11-05T08:13:42.846Z,11.59
2022-11-05T08:15:46.408Z,11.62
2022-11-05T08:17:50.171Z,11.62
2022-11-05T08:19:53.661Z,11.63
2022-11-05T08:21:57.085Z,11.65
2022-11-05T08:24:06.772Z,11.66
2022-11-05T08:26:11.381Z,11.67
2022-11-05T08:28:15.098Z,11.70
2022-11-05T08:30:20.012Z,11.73
2022-11-05T08:32:23.477Z,11.76
2022-11-05T08:34:26.872Z,11.80
2022-11-05T08:36:30.264Z,11.85
2022-11-05T08:38:33.917Z,11.87
2022-11-05T08:40:39.113Z,11.89
2022-11-05T08:42:42.680Z,11.92
2022-11-05T08:44:46.030Z,11.94
2022-11-05T08:46:51.134Z,11.96
2022-11-05T08:48:54.397Z,11.97
2022-11-05T08:50:57.844Z,11.99
2022-11-05T08:53:01.324Z,12.01
2022-11-05T08:55:04.737Z,12.02
2022-11-05T08:57:07.974Z,12.04
2022-11-05T08:59:11.318Z,12.05
2022-11-05T09:01:14.654Z,12.06
2022-11-05T09:03:19.947Z,12.08
2022-11-05T09:05:23.205Z,12.08
2022-11-05T09:07:26.441Z,12.09
2022-11-05T09:09:29.735Z,12.12
2022-11-05T09:11:49.949Z,12.14
2022-11-05T09:13:56.195Z,12.17
2022-11-05T09:15:59.995Z,12.19
2022-11-05T09:18:03.778Z,12.19
2022-11-05T09:20:12.101Z,12.22
2022-11-05T09:22:16.019Z,12.22
2022-11-05T09:24:19.282Z,12.23
2022-11-05T09:26:22.490Z,12.22
2022-11-05T09:28:25.838Z,12.21
2022-11-05T09:30:29.117Z,12.20
2022-11-05T09:32:32.995Z,12.20
2022-11-05T09:34:36.634Z,12.17
2022-11-05T09:36:41.312Z,12.14
2022-11-05T09:38:47.773Z,12.13
2022-11-05T09:40:58.634Z,12.10
2022-11-05T09:43:02.900Z,12.10
2022-11-05T09:45:11.207Z,12.08
2022-11-05T09:47:19.269Z,12.08
2022-11-05T09:49:27.679Z,12.09
2022-11-05T09:51:31.926Z,12.09
2022-11-05T09:53:41.113Z,12.08
2022-11-05T09:55:46.699Z,12.08
2022-11-05T09:57:54.437Z,12.08
2022-11-05T10:00:00.207Z,12.08
2022-11-05T10:02:12.960Z,12.08
2022-11-05T10:04:20.458Z,12.06
2022-11-05T10:06:26.421Z,12.04
2022-11-05T10:08:33.790Z,11.99
2022-11-05T10:10:43.506Z,11.91
2022-11-05T10:12:52.272Z,11.84
2022-11-05T10:15:08.866Z,11.78
2022-11-05T10:17:24.636Z,11.75
2022-11-05T10:19:33.178Z,11.73
2022-11-05T10:22:04.834Z,11.73
2022-11-05T10:24:04.057Z,11.74
2022-11-05T10:26:14.961Z,11.77
2022-11-05T10:28:20.215Z,11.83
2022-11-05T10:30:24.962Z,11.85
2022-11-05T10:32:32.319Z,11.88
2022-11-05T10:34:39.071Z,12.01
2022-11-05T10:36:43.073Z,12.14
2022-11-05T10:38:48.779Z,12.26
2022-11-05T10:41:04.981Z,12.40
2022-11-05T10:43:16.078Z,12.44
2022-11-05T10:45:29.785Z,12.46
2022-11-05T10:48:03.143Z,12.50
2022-11-05T10:50:12.468Z,12.45
2022-11-05T10:52:23.782Z,12.34
2022-11-05T10:54:34.846Z,12.25
2022-11-05T10:56:40.157Z,12.18
2022-11-05T10:58:57.119Z,12.11
2022-11-05T11:01:08.379Z,12.05
2022-11-05T11:03:35.327Z,11.97
2022-11-05T11:05:40.660Z,11.97
2022-11-05T11:07:44.724Z,11.96
2022-11-05T11:09:50.395Z,11.93
2022-11-05T11:12:07.559Z,11.94
2022-11-05T11:14:22.479Z,11.95
2022-11-05T11:16:27.913Z,11.96
2022-11-05T11:18:40.266Z,12.00
2022-11-05T11:20:47.472Z,12.04
2022-11-05T11:23:06.991Z,12.05
2022-11-05T11:25:24.760Z,12.06
2022-11-05T11:27:30.784Z,12.08
2022-11-05T11:29:40.525Z,12.09
2022-11-05T11:31:47.958Z,12.10
2022-11-05T11:33:59.594Z,12.08
2022-11-05T11:36:03.595Z,12.07
2022-11-05T11:38:08.764Z,12.08
2022-11-05T11:40:18.876Z,12.14
2022-11-05T11:42:29.893Z,12.23
2022-11-05T11:44:41.034Z,12.32
2022-11-05T11:46:50.085Z,12.36
2022-11-05T11:48:54.728Z,12.41
2022-11-05T11:51:00.458Z,12.43
2022-11-05T11:53:38.184Z,12.42
2022-11-05T11:55:42.508Z,12.36
2022-11-05T11:57:50.527Z,12.32
2022-11-05T12:00:13.818Z,12.28
2022-11-05T12:02:45.319Z,12.24
2022-11-05T12:05:16.016Z,12.21
2022-11-05T12:07:38.162Z,12.19
2022-11-05T12:09:59.950Z,12.16
2022-11-05T12:12:09.648Z,12.14
2022-11-05T12:14:23.561Z,12.13
2022-11-05T12:16:45.977Z,12.13
2022-11-05T12:19:02.156Z,12.09
2022-11-05T12:21:24.998Z,12.04
2022-11-05T12:24:04.976Z,12.01
2022-11-05T12:26:15.286Z,12.03
2022-11-05T12:29:12.024Z,12.02
2022-11-05T12:31:18.443Z,12.02
2022-11-05T12:33:35.341Z,12.01
2022-11-05T12:35:53.352Z,12.00
2022-11-05T12:38:11.261Z,11.98
2022-11-05T12:40:35.995Z,11.98
2022-11-05T12:42:53.903Z,11.97
2022-11-05T12:45:04.935Z,11.97
2022-11-05T12:47:24.760Z,11.96
2022-11-05T12:49:48.872Z,11.93
2022-11-05T12:52:15.216Z,11.94
2022-11-05T12:54:34.086Z,11.94
2022-11-05T12:56:43.913Z,11.92
2022-11-05T12:58:54.023Z,11.90
2022-11-05T13:01:03.501Z,11.89
2022-11-05T13:04:02.443Z,11.88
2022-11-05T13:06:37.585Z,11.88
2022-11-05T13:09:08.783Z,11.87
2022-11-05T13:11:26.028Z,11.87
2022-11-05T13:28:06.978Z,11.84
2022-11-05T13:30:11.541Z,11.88
2022-11-05T13:33:26.430Z,11.92
2022-11-05T13:36:18.916Z,11.97
2022-11-05T13:38:44.980Z,11.98
2022-11-05T13:41:00.937Z,11.98
2022-11-05T13:43:24.388Z,11.98
2022-11-05T13:46:05.937Z,11.95
2022-11-05T13:48:50.886Z,11.91
2022-11-05T13:51:24.737Z,11.89
2022-11-05T13:53:48.733Z,11.88
2022-11-05T13:56:07.482Z,11.87
2022-11-05T13:58:30.027Z,11.87
2022-11-05T14:00:38.852Z,11.88
2022-11-05T14:02:50.156Z,11.91
2022-11-05T14:05:01.240Z,11.93
2022-11-05T14:07:11.492Z,11.94
2022-11-05T14:09:22.459Z,11.99
2022-11-05T14:11:30.470Z,11.99
2022-11-05T14:13:38.576Z,12.00
2022-11-05T14:15:42.669Z,12.04
2022-11-05T14:18:00.057Z,12.06
2022-11-05T14:20:40.613Z,12.04
2022-11-05T14:22:45.619Z,12.05
2022-11-05T14:24:55.272Z,12.04
2022-11-05T14:27:44.397Z,12.00
2022-11-05T14:29:49.738Z,11.97
2022-11-05T14:32:08.934Z,11.95
2022-11-05T14:34:25.617Z,11.92
2022-11-05T14:36:38.488Z,11.91
2022-11-05T14:38:48.758Z,11.92
2022-11-05T14:41:01.850Z,11.92
2022-11-05T14:43:17.574Z,11.94
2022-11-05T14:45:33.271Z,11.96
2022-11-05T14:47:48.211Z,11.97
2022-11-05T14:49:56.000Z,11.99
2022-11-05T14:52:01.425Z,12.01
2022-11-05T14:54:08.074Z,12.04
2022-11-05T14:56:20.482Z,12.03
2022-11-05T14:58:30.350Z,12.03
2022-11-05T15:00:48.792Z,12.01
2022-11-05T15:02:58.368Z,11.98
2022-11-05T15:05:35.341Z,11.95
2022-11-05T15:07:43.852Z,11.90
2022-11-05T15:09:50.327Z,11.88
2022-11-05T15:12:10.986Z,11.86
2022-11-05T15:14:24.666Z,11.84
2022-11-05T15:16:34.082Z,11.82
2022-11-05T15:18:43.908Z,11.82
2022-11-05T15:20:51.247Z,11.79
2022-11-05T15:23:01.172Z,11.78
2022-11-05T15:25:06.068Z,11.77
2022-11-05T15:27:16.546Z,11.75
2022-11-05T15:29:24.955Z,11.73
2022-11-05T15:31:34.871Z,11.71
2022-11-05T15:33:38.861Z,11.68
2022-11-05T15:35:42.862Z,11.64
2022-11-05T15:37:54.591Z,11.62
2022-11-05T15:40:02.323Z,11.58
2022-11-05T15:42:08.714Z,11.56
2022-11-05T15:44:25.879Z,11.51
2022-11-05T15:46:30.276Z,11.48
2022-11-05T15:48:34.251Z,11.43
2022-11-05T15:50:37.923Z,11.43
2022-11-05T15:52:49.688Z,11.39
2022-11-05T15:55:23.952Z,11.35
2022-11-05T15:57:30.506Z,11.31
2022-11-05T15:59:35.296Z,11.28
2022-11-05T16:01:48.700Z,11.25
2022-11-05T16:03:53.759Z,11.21
2022-11-05T16:05:58.097Z,11.18
2022-11-05T16:08:04.442Z,11.15
2022-11-05T16:10:12.790Z,11.12
2022-11-05T16:12:26.965Z,11.10
2022-11-05T16:14:36.542Z,11.05
2022-11-05T16:16:40.408Z,11.03
2022-11-05T16:18:45.516Z,10.99
2022-11-05T16:21:01.729Z,10.95
2022-11-05T16:23:23.454Z,10.92
2022-11-05T16:25:34.017Z,10.88
2022-11-05T16:27:39.202Z,10.83
2022-11-05T16:29:50.139Z,10.80
2022-11-05T16:31:55.389Z,10.76
2022-11-05T16:34:00.218Z,10.73
2022-11-05T16:36:03.874Z,10.69
2022-11-05T16:38:07.450Z,10.65
2022-11-05T16:40:15.478Z,10.61
2022-11-05T16:42:48.799Z,10.57
2022-11-05T16:44:53.605Z,10.53
2022-11-05T16:46:57.098Z,10.49
2022-11-05T16:49:00.598Z,10.45
2022-11-05T16:51:04.106Z,10.40
2022-11-05T16:53:07.898Z,10.35
2022-11-05T16:55:12.629Z,10.31
2022-11-05T16:57:24.647Z,10.26
2022-11-05T16:59:30.365Z,10.23
2022-11-05T17:01:35.195Z,10.20
2022-11-05T17:03:39.144Z,10.19
2022-11-05T17:05:43.738Z,10.14
2022-11-05T17:07:47.472Z,10.12
2022-11-05T17:09:51.117Z,10.09
2022-11-05T17:11:54.736Z,10.07
2022-11-05T17:13:58.249Z,10.03
2022-11-05T17:16:04.790Z,9.94
2022-11-05T17:18:09.329Z,9.87
2022-11-05T17:20:24.773Z,9.82
2022-11-05T17:22:28.340Z,9.79
2022-11-05T17:24:31.981Z,9.79
2022-11-05T17:26:35.680Z,9.79
2022-11-05T17:28:40.799Z,9.78
2022-11-05T17:30:51.686Z,9.75
2022-11-05T17:32:57.894Z,9.72
2022-11-05T17:35:01.729Z,9.70
2022-11-05T17:37:05.528Z,9.64
2022-11-05T17:39:09.066Z,9.60
2022-11-05T17:41:14.069Z,9.58
2022-11-05T17:43:18.123Z,9.58
2022-11-05T17:45:21.812Z,9.57
2022-11-05T17:47:26.056Z,9.56
2022-11-05T17:49:31.388Z,9.57
2022-11-05T17:51:36.313Z,9.53
2022-11-05T17:53:40.649Z,9.52
2022-11-05T17:55:45.555Z,9.53
2022-11-05T17:57:51.992Z,9.55
2022-11-05T17:59:55.634Z,9.55
2022-11-05T18:02:00.102Z,9.54
2022-11-05T18:04:08.727Z,9.53
2022-11-05T18:06:14.248Z,9.53
2022-11-05T18:08:18.219Z,9.53
2022-11-05T18:10:21.960Z,9.54
2022-11-05T18:12:25.519Z,9.52
2022-11-05T18:14:29.157Z,9.53
2022-11-05T18:16:32.930Z,9.54
2022-11-05T18:18:36.909Z,9.54
2022-11-05T18:20:40.562Z,9.54
2022-11-05T18:22:46.159Z,9.54
2022-11-05T18:24:50.343Z,9.52
2022-11-05T18:26:54.651Z,9.52
2022-11-05T18:28:58.493Z,9.50
2022-11-05T18:31:02.137Z,9.46
2022-11-05T18:33:05.835Z,9.47
2022-11-05T18:35:10.588Z,9.47
2022-11-05T18:37:14.257Z,9.49
2022-11-05T18:39:19.330Z,9.50
2022-11-05T18:41:23.000Z,9.52
2022-11-05T18:43:26.559Z,9.52
2022-11-05T18:45:32.352Z,9.53
2022-11-05T18:47:35.952Z,9.55
2022-11-05T18:49:39.754Z,9.56
2022-11-05T18:51:43.417Z,9.58
2022-11-05T18:53:47.154Z,9.59
2022-11-05T18:55:52.373Z,9.58
2022-11-05T18:57:56.034Z,9.58
2022-11-05T18:59:59.679Z,9.58
2022-11-05T19:02:03.454Z,9.61
2022-11-05T19:04:07.197Z,9.63
2022-11-05T19:06:10.893Z,9.64
2022-11-05T19:08:14.843Z,9.61
2022-11-05T19:10:20.173Z,9.60
2022-11-05T19:12:25.825Z,9.54
2022-11-05T19:14:30.350Z,9.43
2022-11-05T19:16:34.798Z,9.34
2022-11-05T19:18:38.869Z,9.26
2022-11-05T19:20:42.752Z,9.18
2022-11-05T19:22:46.239Z,9.17
2022-11-05T19:24:50.000Z,9.21
2022-11-05T19:26:53.683Z,9.26
2022-11-05T19:29:00.721Z,9.29
2022-11-05T19:31:04.975Z,9.29
2022-11-05T19:33:08.835Z,9.25
2022-11-05T19:35:15.634Z,9.22
2022-11-05T19:37:20.179Z,9.22
2022-11-05T19:39:25.012Z,9.25
2022-11-05T19:41:31.145Z,9.30
2022-11-05T19:43:36.005Z,9.41
2022-11-05T19:45:45.529Z,9.51
2022-11-05T19:47:50.527Z,9.61
2022-11-05T19:49:54.915Z,9.69
2022-11-05T19:51:59.398Z,9.75
2022-11-05T19:54:04.888Z,9.81
2022-11-05T19:56:11.251Z,9.83
2022-11-05T19:58:15.451Z,9.87
2022-11-05T20:00:22.031Z,9.88
2022-11-05T20:02:27.481Z,9.91
2022-11-05T20:04:31.380Z,9.91
2022-11-05T20:06:39.252Z,9.92
2022-11-05T20:09:07.208Z,9.92
2022-11-05T20:11:09.455Z,9.95
2022-11-05T20:13:17.103Z,9.96
2022-11-05T20:15:23.413Z,9.95
2022-11-05T20:17:28.403Z,9.96
2022-11-05T20:19:32.168Z,9.96
2022-11-05T20:21:36.224Z,9.95
2022-11-05T20:23:39.873Z,9.95
2022-11-05T20:25:44.021Z,9.96
2022-11-05T20:27:47.632Z,9.97
2022-11-05T20:29:51.033Z,9.98
2022-11-05T20:31:54.964Z,9.96
2022-11-05T20:34:00.328Z,9.98
2022-11-05T20:36:06.268Z,10.02
2022-11-05T20:38:10.275Z,10.05
2022-11-05T20:40:15.387Z,10.08
2022-11-05T20:42:18.862Z,10.14
2022-11-05T20:44:22.553Z,10.20
2022-11-05T20:46:26.796Z,10.24
2022-11-05T20:48:32.943Z,10.31
2022-11-05T20:50:41.774Z,10.35
2022-11-05T20:52:45.659Z,10.39
2022-11-05T20:54:49.845Z,10.42
2022-11-05T20:56:53.657Z,10.44
2022-11-05T20:58:58.962Z,10.45
2022-11-05T21:01:02.600Z,10.45
2022-11-05T21:03:06.612Z,10.45
2022-11-05T21:05:10.737Z,10.45
2022-11-05T21:07:15.662Z,10.45
2022-11-05T21:09:19.241Z,10.46
2022-11-05T21:11:23.013Z,10.46
2022-11-05T21:13:26.685Z,10.45
2022-11-05T21:15:30.342Z,10.44
2022-11-05T21:17:34.202Z,10.43
2022-11-05T21:19:38.000Z,10.42
2022-11-05T21:21:41.581Z,10.41
2022-11-05T21:23:48.217Z,10.40
2022-11-05T21:25:52.345Z,10.41
2022-11-05T21:27:58.153Z,10.41
2022-11-05T21:30:02.381Z,10.39
2022-11-05T21:32:06.299Z,10.39
2022-11-05T21:34:10.608Z,10.39
2022-11-05T21:36:14.952Z,10.38
2022-11-05T21:38:20.186Z,10.38
2022-11-05T21:40:25.744Z,10.38
2022-11-05T21:42:30.680Z,10.38
2022-11-05T21:44:34.293Z,10.37
2022-11-05T21:46:42.513Z,10.34
2022-11-05T21:48:46.552Z,10.29
2022-11-05T21:51:10.860Z,10.26
2022-11-05T21:53:33.161Z,10.26
2022-11-05T21:55:59.985Z,10.27
2022-11-05T21:58:25.683Z,10.29
2022-11-05T22:00:29.075Z,10.31
2022-11-05T22:02:33.166Z,10.33
2022-11-05T22:04:38.672Z,10.35
2022-11-05T22:06:42.316Z,10.36
2022-11-05T22:08:46.041Z,10.37
2022-11-05T22:10:51.279Z,10.39
2022-11-05T22:12:54.721Z,10.40
2022-11-05T22:14:58.547Z,10.40
2022-11-05T22:17:02.552Z,10.41
2022-11-05T22:19:06.138Z,10.41
2022-11-05T22:21:09.838Z,10.42
2022-11-05T22:23:13.381Z,10.41
2022-11-05T22:25:17.388Z,10.41
2022-11-05T22:27:23.226Z,10.42
2022-11-05T22:29:27.210Z,10.43
2022-11-05T22:31:36.016Z,10.42
2022-11-05T22:33:40.422Z,10.43
2022-11-05T22:35:44.251Z,10.43
2022-11-05T22:37:48.180Z,10.45
2022-11-05T22:39:52.589Z,10.46
2022-11-05T22:41:56.988Z,10.47
2022-11-05T22:44:03.448Z,10.49
2022-11-05T22:46:08.480Z,10.50
2022-11-05T22:48:13.633Z,10.49
2022-11-05T22:50:17.876Z,10.53
2022-11-05T22:52:21.910Z,10.54
2022-11-05T22:54:25.975Z,10.53
2022-11-05T22:56:31.716Z,10.54
2022-11-05T22:58:35.589Z,10.56
2022-11-05T23:00:40.590Z,10.54
2022-11-05T23:02:44.762Z,10.55
2022-11-05T23:04:49.647Z,10.53
2022-11-05T23:07:10.558Z,10.53
2022-11-05T23:09:34.071Z,10.51
2022-11-05T23:11:40.661Z,10.48
2022-11-05T23:13:44.528Z,10.47
2022-11-05T23:16:06.767Z,10.48
2022-11-05T23:18:28.333Z,10.47
2022-11-05T23:20:49.177Z,10.46
2022-11-05T23:23:10.254Z,10.41
2022-11-05T23:25:19.474Z,10.36
2022-11-05T23:27:23.153Z,10.34
2022-11-05T23:29:28.649Z,10.29
2022-11-05T23:31:50.841Z,10.24
2022-11-05T23:33:54.617Z,10.20
2022-11-05T23:36:15.516Z,10.16
2022-11-05T23:38:38.123Z,10.12
2022-11-05T23:40:55.645Z,10.08
2022-11-05T23:43:16.651Z,10.05
2022-11-05T23:45:37.465Z,10.04
2022-11-05T23:48:00.000Z,9.99
2022-11-05T23:50:03.635Z,9.98
2022-11-05T23:52:07.704Z,9.99
2022-11-05T23:54:11.726Z,9.98
2022-11-05T23:56:16.550Z,9.97
2022-11-05T23:58:20.693Z,9.94
